createdAt,value
2023-04-26T00:00:26.527Z,1298.00
2023-04-26T00:01:27.433Z,1298.00
2023-04-26T00:02:26.595Z,1306.00
2023-04-26T00:03:27.619Z,1306.00
2023-04-26T00:04:26.722Z,1285.00
2023-04-26T00:05:27.578Z,1300.00
2023-04-26T00:06:27.607Z,1289.00
2023-04-26T00:07:27.660Z,1282.00
2023-04-26T00:08:27.682Z,1294.00
2023-04-26T00:09:27.739Z,1282.00
2023-04-26T00:10:27.770Z,1285.00
2023-04-26T00:11:27.810Z,1296.00
2023-04-26T00:12:27.855Z,1291.00
2023-04-26T00:13:27.940Z,1290.00
2023-04-26T00:14:27.946Z,1273.00
2023-04-26T00:15:27.012Z,1288.00
2023-04-26T00:16:27.111Z,1282.00
2023-04-26T00:17:27.063Z,1276.00
2023-04-26T00:18:27.116Z,1294.00
2023-04-26T00:19:27.159Z,1279.00
2023-04-26T00:20:28.211Z,1282.00
2023-04-26T00:21:27.252Z,1268.00
2023-04-26T00:22:28.297Z,1282.00
2023-04-26T00:23:28.347Z,1278.00
2023-04-26T00:24:28.391Z,1268.00
2023-04-26T00:25:27.426Z,1279.00
2023-04-26T00:26:27.498Z,1272.00
2023-04-26T00:27:28.520Z,1276.00
2023-04-26T00:28:28.571Z,1277.00
2023-04-26T00:29:27.627Z,1265.00
2023-04-26T00:30:28.663Z,1263.00
2023-04-26T00:31:28.721Z,1271.00
2023-04-26T00:32:28.972Z,1257.00
2023-04-26T00:33:27.805Z,1272.00
2023-04-26T00:34:28.841Z,1262.00
2023-04-26T00:35:27.897Z,1266.00
2023-04-26T00:36:28.943Z,1265.00
2023-04-26T00:37:27.995Z,1263.00
2023-04-26T00:38:29.046Z,1260.00
2023-04-26T00:39:29.091Z,1272.00
2023-04-26T00:40:29.135Z,1255.00
2023-04-26T00:41:28.208Z,1245.00
2023-04-26T00:42:29.244Z,1262.00
2023-04-26T00:43:29.288Z,1258.00
2023-04-26T00:44:29.325Z,1261.00
2023-04-26T00:45:29.430Z,1254.00
2023-04-26T00:46:29.477Z,1257.00
2023-04-26T00:47:29.509Z,1270.00
2023-04-26T00:48:29.540Z,1246.00
2023-04-26T00:49:29.555Z,1260.00
2023-04-26T00:50:29.606Z,1257.00
2023-04-26T00:51:29.922Z,1241.00
2023-04-26T00:52:28.714Z,1261.00
2023-04-26T00:53:28.741Z,1248.00
2023-04-26T00:54:28.805Z,1257.00
2023-04-26T00:55:29.933Z,1234.00
2023-04-26T00:56:28.899Z,1255.00
2023-04-26T00:57:28.931Z,1250.00
2023-04-26T00:58:29.988Z,1239.00
2023-04-26T00:59:30.034Z,1226.00
2023-04-26T01:00:29.070Z,1238.00
2023-04-26T01:01:29.173Z,1243.00
2023-04-26T01:02:30.288Z,1237.00
2023-04-26T01:03:30.359Z,1235.00
2023-04-26T01:04:30.413Z,1232.00
2023-04-26T01:05:30.317Z,1237.00
2023-04-26T01:06:30.372Z,1238.00
2023-04-26T01:07:30.401Z,1236.00
2023-04-26T01:08:30.458Z,1224.00
2023-04-26T01:09:29.505Z,1223.00
2023-04-26T01:10:30.867Z,1239.00
2023-04-26T01:11:31.170Z,1237.00
2023-04-26T01:12:29.651Z,1225.00
2023-04-26T01:13:30.698Z,1212.00
2023-04-26T01:14:29.766Z,1224.00
2023-04-26T01:15:30.788Z,1211.00
2023-04-26T01:16:29.886Z,1215.00
2023-04-26T01:17:30.943Z,1229.00
2023-04-26T01:18:30.946Z,1226.00
2023-04-26T01:19:30.997Z,1236.00
2023-04-26T01:20:30.081Z,1214.00
2023-04-26T01:21:30.128Z,1223.00
2023-04-26T01:22:30.210Z,1227.00
2023-04-26T01:23:31.203Z,1200.00
2023-04-26T01:24:30.254Z,1201.00
2023-04-26T01:25:31.323Z,1211.00
2023-04-26T01:26:30.376Z,1204.00
2023-04-26T01:27:31.471Z,1201.00
2023-04-26T01:28:31.509Z,1218.00
2023-04-26T01:29:30.565Z,1213.00
2023-04-26T01:30:30.616Z,1204.00
2023-04-26T01:31:31.768Z,1205.00
2023-04-26T01:32:31.762Z,1209.00
2023-04-26T01:33:31.792Z,1201.00
2023-04-26T01:34:31.836Z,1210.00
2023-04-26T01:35:31.929Z,1200.00
2023-04-26T01:36:32.311Z,1211.00
2023-04-26T01:37:32.014Z,1206.00
2023-04-26T01:38:32.080Z,1207.00
2023-04-26T01:39:32.099Z,1201.00
2023-04-26T01:40:32.169Z,1201.00
2023-04-26T01:41:32.227Z,1191.00
2023-04-26T01:42:31.284Z,1190.00
2023-04-26T01:43:32.319Z,1203.00
2023-04-26T01:44:32.395Z,1185.00
2023-04-26T01:45:32.442Z,1184.00
2023-04-26T01:46:31.567Z,1186.00
2023-04-26T01:47:32.588Z,1197.00
2023-04-26T01:48:32.601Z,1199.00
2023-04-26T01:49:31.660Z,1193.00
2023-04-26T01:50:31.719Z,1194.00
2023-04-26T01:51:32.852Z,1186.00
2023-04-26T01:52:32.826Z,1174.00
2023-04-26T01:53:32.878Z,1200.00
2023-04-26T01:54:32.961Z,1181.00
2023-04-26T01:55:33.044Z,1190.00
2023-04-26T01:56:32.080Z,1175.00
2023-04-26T01:57:33.122Z,1188.00
2023-04-26T01:58:32.189Z,1174.00
2023-04-26T01:59:32.291Z,1184.00
2023-04-26T02:00:33.305Z,1183.00
2023-04-26T02:01:33.379Z,1180.00
2023-04-26T02:02:32.443Z,1168.00
2023-04-26T02:03:33.494Z,1187.00
2023-04-26T02:04:33.510Z,1188.00
2023-04-26T02:05:33.556Z,1179.00
2023-04-26T02:06:33.671Z,1178.00
2023-04-26T02:07:33.693Z,1171.00
2023-04-26T02:08:33.756Z,1172.00
2023-04-26T02:09:32.792Z,1164.00
2023-04-26T02:10:32.829Z,1165.00
2023-04-26T02:11:33.898Z,1172.00
2023-04-26T02:12:33.967Z,1163.00
2023-04-26T02:13:34.006Z,1187.00
2023-04-26T02:14:34.072Z,1182.00
2023-04-26T02:15:34.129Z,1172.00
2023-04-26T02:16:33.219Z,1161.00
2023-04-26T02:17:34.312Z,1172.00
2023-04-26T02:18:34.318Z,1160.00
2023-04-26T02:19:34.367Z,1167.00
2023-04-26T02:20:33.427Z,1163.00
2023-04-26T02:21:33.479Z,1175.00
2023-04-26T02:22:34.552Z,1175.00
2023-04-26T02:23:33.631Z,1149.00
2023-04-26T02:24:33.759Z,1166.00
2023-04-26T02:25:33.741Z,1163.00
2023-04-26T02:26:34.807Z,1152.00
2023-04-26T02:27:33.872Z,1149.00
2023-04-26T02:28:34.916Z,1151.00
2023-04-26T02:30:33.980Z,1160.00
2023-04-26T02:31:34.991Z,1161.00
2023-04-26T02:32:35.007Z,1156.00
2023-04-26T02:33:34.947Z,1144.00
2023-04-26T02:34:33.939Z,1161.00
2023-04-26T02:35:34.941Z,1157.00
2023-04-26T02:36:33.939Z,1149.00
2023-04-26T02:37:34.929Z,1137.00
2023-04-26T02:38:33.926Z,1143.00
2023-04-26T02:39:34.941Z,1156.00
2023-04-26T02:40:33.920Z,1166.00
2023-04-26T02:41:34.954Z,1154.00
2023-04-26T02:42:34.885Z,1152.00
2023-04-26T02:43:34.870Z,1158.00
2023-04-26T02:44:34.873Z,1152.00
2023-04-26T02:45:34.878Z,1139.00
2023-04-26T02:46:34.923Z,1148.00
2023-04-26T02:47:33.931Z,1136.00
2023-04-26T02:48:34.844Z,1141.00
2023-04-26T02:49:34.847Z,1137.00
2023-04-26T02:50:34.836Z,1138.00
2023-04-26T02:51:34.841Z,1140.00
2023-04-26T02:52:34.818Z,1137.00
2023-04-26T02:53:34.886Z,1138.00
2023-04-26T02:54:33.919Z,1148.00
2023-04-26T02:55:34.004Z,1141.00
2023-04-26T02:56:35.090Z,1146.00
2023-04-26T02:57:35.088Z,1134.00
2023-04-26T02:58:35.152Z,1134.00
2023-04-26T02:59:35.205Z,1142.00
2023-04-26T03:00:35.354Z,1149.00
2023-04-26T03:01:34.417Z,1135.00
2023-04-26T03:02:35.596Z,1134.00
2023-04-26T03:03:35.576Z,1129.00
2023-04-26T03:04:34.504Z,1115.00
2023-04-26T03:05:34.565Z,1131.00
2023-04-26T03:06:35.623Z,1130.00
2023-04-26T03:07:34.678Z,1122.00
2023-04-26T03:08:35.738Z,1119.00
2023-04-26T03:09:35.810Z,1124.00
2023-04-26T03:10:35.865Z,1122.00
2023-04-26T03:11:35.978Z,1122.00
2023-04-26T03:12:35.972Z,1124.00
2023-04-26T03:13:36.045Z,1126.00
2023-04-26T03:14:35.104Z,1124.00
2023-04-26T03:15:35.191Z,1126.00
2023-04-26T03:16:36.260Z,1122.00
2023-04-26T03:17:36.340Z,1109.00
2023-04-26T03:18:36.355Z,1119.00
2023-04-26T03:19:35.430Z,1120.00
2023-04-26T03:20:35.477Z,1111.00
2023-04-26T03:21:36.550Z,1125.00
2023-04-26T03:22:35.595Z,1114.00
2023-04-26T03:23:35.680Z,1106.00
2023-04-26T03:24:36.716Z,1108.00
2023-04-26T03:25:35.784Z,1117.00
2023-04-26T03:26:36.840Z,1105.00
2023-04-26T03:27:35.921Z,1105.00
2023-04-26T03:28:35.956Z,1108.00
2023-04-26T03:29:36.025Z,1117.00
2023-04-26T03:30:37.074Z,1107.00
2023-04-26T03:31:36.218Z,1103.00
2023-04-26T03:32:36.291Z,1109.00
2023-04-26T03:33:37.262Z,1107.00
2023-04-26T03:34:37.331Z,1109.00
2023-04-26T03:35:37.382Z,1118.00
2023-04-26T03:36:37.462Z,1095.00
2023-04-26T03:37:36.539Z,1112.00
2023-04-26T03:38:37.643Z,1089.00
2023-04-26T03:39:37.650Z,1097.00
2023-04-26T03:40:36.684Z,1111.00
2023-04-26T03:41:37.768Z,1109.00
2023-04-26T03:42:37.842Z,1101.00
2023-04-26T03:43:37.934Z,1091.00
2023-04-26T03:44:37.930Z,1099.00
2023-04-26T03:45:37.024Z,1095.00
2023-04-26T03:46:37.040Z,1097.00
2023-04-26T03:47:38.112Z,1087.00
2023-04-26T03:48:37.172Z,1080.00
2023-04-26T03:49:37.191Z,1087.00
2023-04-26T03:50:38.227Z,1082.00
2023-04-26T03:51:38.302Z,1091.00
2023-04-26T03:52:37.348Z,1091.00
2023-04-26T03:53:38.424Z,1071.00
2023-04-26T03:54:38.455Z,1089.00
2023-04-26T03:55:38.503Z,1094.00
2023-04-26T03:56:37.563Z,1066.00
2023-04-26T03:57:37.680Z,1086.00
2023-04-26T03:58:38.713Z,1072.00
2023-04-26T03:59:37.741Z,1085.00
2023-04-26T04:00:37.766Z,1069.00
2023-04-26T04:01:38.801Z,1091.00
2023-04-26T04:02:38.986Z,1080.00
2023-04-26T04:03:41.002Z,1080.00
2023-04-26T04:04:39.101Z,1095.00
2023-04-26T04:05:37.962Z,1078.00
2023-04-26T04:06:37.907Z,1086.00
2023-04-26T04:07:37.899Z,1069.00
2023-04-26T04:08:37.878Z,1067.00
2023-04-26T04:09:38.873Z,1083.00
2023-04-26T04:10:38.859Z,1064.00
2023-04-26T04:11:38.859Z,1074.00
2023-04-26T04:12:38.848Z,1060.00
2023-04-26T04:13:38.848Z,1064.00
2023-04-26T04:14:37.841Z,1050.00
2023-04-26T04:15:38.867Z,1057.00
2023-04-26T04:16:38.813Z,1063.00
2023-04-26T04:17:39.033Z,1044.00
2023-04-26T04:18:38.818Z,1058.00
2023-04-26T04:19:38.806Z,1062.00
2023-04-26T04:20:38.792Z,1065.00
2023-04-26T04:21:38.789Z,1047.00
2023-04-26T04:22:37.794Z,1057.00
2023-04-26T04:23:38.766Z,1042.00
2023-04-26T04:24:38.768Z,1052.00
2023-04-26T04:25:37.785Z,1054.00
2023-04-26T04:26:37.776Z,1046.00
2023-04-26T04:27:38.802Z,1045.00
2023-04-26T04:28:38.741Z,1047.00
2023-04-26T04:29:37.753Z,1044.00
2023-04-26T04:30:37.825Z,1039.00
2023-04-26T04:31:38.869Z,1042.00
2023-04-26T04:32:38.902Z,1052.00
2023-04-26T04:33:38.919Z,1047.00
2023-04-26T04:34:37.968Z,1049.00
2023-04-26T04:35:37.996Z,1040.00
2023-04-26T04:36:38.027Z,1050.00
2023-04-26T04:37:38.085Z,1044.00
2023-04-26T04:38:38.104Z,1035.00
2023-04-26T04:39:38.158Z,1050.00
2023-04-26T04:40:38.204Z,1042.00
2023-04-26T04:41:39.247Z,1034.00
2023-04-26T04:42:39.293Z,1042.00
2023-04-26T04:43:38.331Z,1027.00
2023-04-26T04:44:39.372Z,1035.00
2023-04-26T04:45:39.436Z,1018.00
2023-04-26T04:46:38.546Z,1042.00
2023-04-26T04:47:38.570Z,1038.00
2023-04-26T04:48:39.556Z,1036.00
2023-04-26T04:49:38.599Z,1034.00
2023-04-26T04:50:39.631Z,1034.00
2023-04-26T04:51:39.677Z,1024.00
2023-04-26T04:52:38.713Z,1045.00
2023-04-26T04:53:39.750Z,1040.00
2023-04-26T04:54:39.805Z,1042.00
2023-04-26T04:55:39.868Z,1041.00
2023-04-26T04:56:38.892Z,1034.00
2023-04-26T04:57:42.651Z,1033.00
2023-04-26T04:58:38.961Z,1072.00
2023-04-26T04:59:40.402Z,1051.00
2023-04-26T05:00:39.903Z,1055.00
2023-04-26T05:01:39.921Z,1046.00
2023-04-26T05:02:38.959Z,1049.00
2023-04-26T05:03:39.976Z,1033.00
2023-04-26T05:04:40.076Z,1028.00
2023-04-26T05:05:39.927Z,1037.00
2023-04-26T05:06:39.892Z,1038.00
2023-04-26T05:07:39.871Z,1037.00
2023-04-26T05:08:39.866Z,1018.00
2023-04-26T05:09:38.842Z,1031.00
2023-04-26T05:10:39.826Z,1044.00
2023-04-26T05:11:38.860Z,1039.00
2023-04-26T05:12:39.820Z,1023.00
2023-04-26T05:13:38.828Z,1035.00
2023-04-26T05:14:39.810Z,1022.00
2023-04-26T05:15:38.797Z,1037.00
2023-04-26T05:16:39.837Z,1041.00
2023-04-26T05:17:39.837Z,1026.00
2023-04-26T05:18:38.781Z,1047.00
2023-04-26T05:19:38.807Z,1043.00
2023-04-26T05:20:38.807Z,1030.00
2023-04-26T05:21:39.790Z,1029.00
2023-04-26T05:22:39.841Z,1031.00
2023-04-26T05:23:39.889Z,1036.00
2023-04-26T05:24:39.928Z,1032.00
2023-04-26T05:25:38.946Z,1038.00
2023-04-26T05:26:39.993Z,1035.00
2023-04-26T05:27:39.037Z,1038.00
2023-04-26T05:28:39.083Z,1028.00
2023-04-26T05:29:39.122Z,1030.00
2023-04-26T05:30:39.153Z,1026.00
2023-04-26T05:31:40.259Z,1029.00
2023-04-26T05:32:40.354Z,1033.00
2023-04-26T05:33:39.302Z,1019.00
2023-04-26T05:34:39.527Z,1011.00
2023-04-26T05:35:40.754Z,1018.00
2023-04-26T05:36:40.408Z,1016.00
2023-04-26T05:37:40.446Z,1020.00
2023-04-26T05:38:39.481Z,1006.00
2023-04-26T05:39:40.502Z,1007.00
2023-04-26T05:40:39.571Z,1008.00
2023-04-26T05:41:40.613Z,1018.00
2023-04-26T05:42:39.638Z,1027.00
2023-04-26T05:43:41.192Z,1031.00
2023-04-26T05:44:40.892Z,1031.00
2023-04-26T05:45:41.209Z,1028.00
2023-04-26T05:46:41.303Z,1020.00
2023-04-26T05:47:41.885Z,1021.00
2023-04-26T05:48:40.077Z,1018.00
2023-04-26T05:49:40.387Z,1033.00
2023-04-26T05:50:41.346Z,1036.00
2023-04-26T05:51:40.232Z,1037.00
2023-04-26T05:52:41.708Z,1044.00
2023-04-26T05:53:41.246Z,1047.00
2023-04-26T05:54:41.476Z,1062.00
2023-04-26T05:55:41.741Z,1071.00
2023-04-26T05:56:41.663Z,1078.00
2023-04-26T05:57:41.985Z,1086.00
2023-04-26T05:58:41.506Z,1105.00
2023-04-26T05:59:41.628Z,1122.00
2023-04-26T06:00:41.325Z,1136.00
2023-04-26T06:01:41.605Z,1159.00
2023-04-26T06:02:41.546Z,1163.00
2023-04-26T06:03:41.491Z,1192.00
2023-04-26T06:04:40.461Z,1210.00
2023-04-26T06:05:40.302Z,1226.00
2023-04-26T06:06:41.392Z,1244.00
2023-04-26T06:07:41.671Z,1266.00
2023-04-26T06:08:41.294Z,1281.00
2023-04-26T06:09:41.388Z,1297.00
2023-04-26T06:10:41.456Z,1324.00
2023-04-26T06:11:41.460Z,1353.00
2023-04-26T06:12:41.530Z,1382.00
2023-04-26T06:13:41.611Z,1395.00
2023-04-26T06:14:41.641Z,1429.00
2023-04-26T06:15:41.694Z,1453.00
2023-04-26T06:16:43.736Z,1466.00
2023-04-26T06:17:40.771Z,1482.00
2023-04-26T06:18:41.713Z,1497.00
2023-04-26T06:19:41.700Z,1526.00
2023-04-26T06:20:41.708Z,1578.00
2023-04-26T06:21:41.694Z,1596.00
2023-04-26T06:22:41.708Z,1614.00
2023-04-26T06:23:41.747Z,1628.00
2023-04-26T06:24:41.673Z,1636.00
2023-04-26T06:25:41.681Z,1656.00
2023-04-26T06:26:41.654Z,1657.00
2023-04-26T06:27:40.668Z,1666.00
2023-04-26T06:28:42.428Z,1678.00
2023-04-26T06:29:41.644Z,1711.00
2023-04-26T06:30:41.653Z,1712.00
2023-04-26T06:31:41.710Z,1737.00
2023-04-26T06:32:41.695Z,1745.00
2023-04-26T06:33:41.617Z,1767.00
2023-04-26T06:34:40.611Z,1771.00
2023-04-26T06:35:40.614Z,1754.00
2023-04-26T06:36:40.585Z,1759.00
2023-04-26T06:37:41.594Z,1761.00
2023-04-26T06:38:41.575Z,1788.00
2023-04-26T06:39:41.696Z,1796.00
2023-04-26T06:40:41.566Z,1814.00
2023-04-26T06:41:41.540Z,1823.00
2023-04-26T06:42:41.572Z,1839.00
2023-04-26T06:43:41.549Z,1840.00
2023-04-26T06:44:41.818Z,1866.00
2023-04-26T06:45:43.259Z,1867.00
2023-04-26T06:46:41.546Z,1900.00
2023-04-26T06:47:41.529Z,1914.00
2023-04-26T06:48:40.502Z,1930.00
2023-04-26T06:49:41.554Z,1944.00
2023-04-26T06:50:40.531Z,1947.00
2023-04-26T06:51:41.491Z,1958.00
2023-04-26T06:52:40.481Z,1975.00
2023-04-26T06:53:41.939Z,1987.00
2023-04-26T06:54:53.590Z,2006.00
2023-04-26T06:55:41.498Z,2008.00
2023-04-26T06:56:40.461Z,2025.00
2023-04-26T06:57:41.458Z,2047.00
2023-04-26T06:58:42.445Z,2082.00
2023-04-26T06:59:41.441Z,2151.00
2023-04-26T07:00:40.433Z,2160.00
2023-04-26T07:01:41.447Z,2164.00
2023-04-26T07:02:41.622Z,2147.00
2023-04-26T07:03:41.553Z,2122.00
2023-04-26T07:04:41.556Z,2068.00
2023-04-26T07:05:41.667Z,2026.00
2023-04-26T07:06:41.464Z,1889.00
2023-04-26T07:07:41.945Z,1912.00
2023-04-26T07:08:41.371Z,1851.00
2023-04-26T07:09:41.365Z,1828.00
2023-04-26T07:10:40.359Z,1823.00
2023-04-26T07:11:40.350Z,1826.00
2023-04-26T07:12:41.349Z,1837.00
2023-04-26T07:13:41.340Z,1835.00
2023-04-26T07:14:41.345Z,1839.00
2023-04-26T07:15:41.439Z,1835.00
2023-04-26T07:16:41.443Z,1819.00
2023-04-26T07:17:40.317Z,1816.00
2023-04-26T07:18:40.553Z,1821.00
2023-04-26T07:19:41.657Z,1817.00
2023-04-26T07:20:42.601Z,1824.00
2023-04-26T07:21:41.357Z,1823.00
2023-04-26T07:22:41.346Z,1827.00
2023-04-26T07:23:41.342Z,1821.00
2023-04-26T07:24:41.415Z,1809.00
2023-04-26T07:25:40.428Z,1841.00
2023-04-26T07:26:41.473Z,1837.00
2023-04-26T07:27:40.578Z,1835.00
2023-04-26T07:28:41.652Z,1834.00
2023-04-26T07:29:41.650Z,1844.00
2023-04-26T07:30:40.727Z,1842.00
2023-04-26T07:31:41.762Z,1855.00
2023-04-26T07:32:41.901Z,1853.00
2023-04-26T07:33:41.935Z,1853.00
2023-04-26T07:34:41.066Z,1849.00
2023-04-26T07:35:42.026Z,1839.00
2023-04-26T07:36:42.090Z,1867.00
2023-04-26T07:37:42.118Z,1863.00
2023-04-26T07:38:42.172Z,1872.00
2023-04-26T07:39:42.232Z,1851.00
2023-04-26T07:40:41.274Z,1857.00
2023-04-26T07:41:43.729Z,1853.00
2023-04-26T07:42:42.592Z,1868.00
2023-04-26T07:43:42.606Z,1862.00
2023-04-26T07:44:42.654Z,1866.00
2023-04-26T07:45:42.740Z,1902.00
2023-04-26T07:46:41.759Z,1972.00
2023-04-26T07:47:41.817Z,1970.00
2023-04-26T07:48:41.971Z,1942.00
2023-04-26T07:49:41.862Z,1916.00
2023-04-26T07:50:42.910Z,1891.00
2023-04-26T07:51:42.980Z,1899.00
2023-04-26T07:52:43.032Z,1884.00
2023-04-26T07:53:43.480Z,1897.00
2023-04-26T07:54:42.164Z,1907.00
2023-04-26T07:55:43.262Z,1860.00
2023-04-26T07:56:42.243Z,1863.00
2023-04-26T07:57:43.300Z,1864.00
2023-04-26T07:58:42.432Z,1840.00
2023-04-26T07:59:43.318Z,1844.00
2023-04-26T08:00:42.328Z,1836.00
2023-04-26T08:01:43.368Z,1842.00
2023-04-26T08:02:45.279Z,1823.00
2023-04-26T08:03:43.557Z,1838.00
2023-04-26T08:04:43.528Z,1818.00
2023-04-26T08:05:42.434Z,1797.00
2023-04-26T08:06:43.280Z,1820.00
2023-04-26T08:07:42.269Z,1800.00
2023-04-26T08:08:43.290Z,1806.00
2023-04-26T08:09:43.268Z,1796.00
2023-04-26T08:10:42.262Z,1790.00
2023-04-26T08:11:43.299Z,1787.00
2023-04-26T08:12:42.238Z,1773.00
2023-04-26T08:13:43.269Z,1796.00
2023-04-26T08:14:43.309Z,1798.00
2023-04-26T08:15:42.252Z,1785.00
2023-04-26T08:16:43.274Z,1777.00
2023-04-26T08:17:42.269Z,1803.00
2023-04-26T08:18:45.345Z,1807.00
2023-04-26T08:19:43.209Z,1809.00
2023-04-26T08:20:43.245Z,1804.00
2023-04-26T08:21:43.170Z,1793.00
2023-04-26T08:22:42.164Z,1807.00
2023-04-26T08:23:43.213Z,1816.00
2023-04-26T08:24:43.162Z,1802.00
2023-04-26T08:25:43.158Z,1775.00
2023-04-26T08:26:43.179Z,1773.00
2023-04-26T08:27:42.140Z,1764.00
2023-04-26T08:28:42.147Z,1782.00
2023-04-26T08:29:42.130Z,1779.00
2023-04-26T08:30:42.294Z,1784.00
2023-04-26T08:31:42.233Z,1763.00
2023-04-26T08:32:43.142Z,1759.00
2023-04-26T08:33:43.113Z,1756.00
2023-04-26T08:34:43.162Z,1762.00
2023-04-26T08:35:42.105Z,1749.00
2023-04-26T08:36:43.138Z,1747.00
2023-04-26T08:37:42.079Z,1746.00
2023-04-26T08:38:43.105Z,1747.00
2023-04-26T08:39:43.045Z,1747.00
2023-04-26T08:40:42.048Z,1701.00
2023-04-26T08:41:44.002Z,1705.00
2023-04-26T08:42:42.047Z,1717.00
2023-04-26T08:43:42.970Z,1703.00
2023-04-26T08:44:42.037Z,1686.00
2023-04-26T08:45:42.082Z,1658.00
2023-04-26T08:46:43.130Z,1666.00
2023-04-26T08:47:43.101Z,1667.00
2023-04-26T08:48:42.996Z,1675.00
2023-04-26T08:49:43.004Z,1668.00
2023-04-26T08:50:43.014Z,1629.00
2023-04-26T08:51:43.053Z,1626.00
2023-04-26T08:52:43.176Z,1640.00
2023-04-26T08:53:42.163Z,1634.00
2023-04-26T08:54:43.223Z,1627.00
2023-04-26T08:55:43.290Z,1615.00
2023-04-26T08:56:43.329Z,1644.00
2023-04-26T08:57:43.409Z,1644.00
2023-04-26T08:58:43.517Z,1639.00
2023-04-26T08:59:43.511Z,1620.00
2023-04-26T09:00:43.613Z,1630.00
2023-04-26T09:01:43.663Z,1637.00
2023-04-26T09:02:42.993Z,1639.00
2023-04-26T09:03:42.987Z,1643.00
2023-04-26T09:04:43.915Z,1625.00
2023-04-26T09:05:43.847Z,1627.00
2023-04-26T09:06:43.934Z,1617.00
2023-04-26T09:07:43.949Z,1612.00
2023-04-26T09:08:43.514Z,1608.00
2023-04-26T09:09:44.070Z,1609.00
2023-04-26T09:10:44.120Z,1609.00
2023-04-26T09:11:43.164Z,1607.00
2023-04-26T09:12:44.218Z,1612.00
2023-04-26T09:13:44.315Z,1621.00
2023-04-26T09:14:43.369Z,1622.00
2023-04-26T09:15:43.429Z,1623.00
2023-04-26T09:16:44.647Z,1621.00
2023-04-26T09:17:44.670Z,1613.00
2023-04-26T09:18:43.609Z,1618.00
2023-04-26T09:19:44.641Z,1614.00
2023-04-26T09:20:44.684Z,1608.00
2023-04-26T09:21:44.761Z,1601.00
2023-04-26T09:22:44.801Z,1603.00
2023-04-26T09:23:44.924Z,1595.00
2023-04-26T09:24:43.929Z,1598.00
2023-04-26T09:25:44.980Z,1597.00
2023-04-26T09:26:44.032Z,1593.00
2023-04-26T09:27:45.106Z,1220.00
2023-04-26T09:28:44.166Z,814.00
2023-04-26T09:29:44.150Z,579.00
2023-04-26T09:30:44.174Z,488.00
2023-04-26T09:31:47.802Z,509.00
2023-04-26T09:32:45.237Z,491.00
2023-04-26T09:33:44.156Z,512.00
2023-04-26T09:34:45.192Z,467.00
2023-04-26T09:35:44.196Z,509.00
2023-04-26T09:36:45.166Z,557.00
2023-04-26T09:37:57.605Z,489.00
2023-04-26T09:38:45.149Z,491.00
2023-04-26T09:39:45.114Z,469.00
2023-04-26T09:40:45.122Z,520.00
2023-04-26T09:41:44.110Z,585.00
2023-04-26T09:42:45.133Z,567.00
2023-04-26T09:43:45.128Z,640.00
2023-04-26T09:44:45.090Z,591.00
2023-04-26T09:45:45.068Z,496.00
2023-04-26T09:46:45.133Z,573.00
2023-04-26T09:47:44.115Z,479.00
2023-04-26T09:48:46.636Z,400.00
2023-04-26T09:49:44.075Z,400.00
2023-04-26T09:50:45.117Z,400.00
2023-04-26T09:51:44.034Z,428.00
2023-04-26T09:52:45.049Z,487.00
2023-04-26T09:53:44.087Z,532.00
2023-04-26T09:54:45.018Z,531.00
2023-04-26T09:55:45.047Z,556.00
2023-04-26T09:56:45.062Z,557.00
2023-04-26T09:57:45.027Z,586.00
2023-04-26T09:58:45.048Z,585.00
2023-04-26T09:59:44.985Z,607.00
2023-04-26T10:00:44.029Z,625.00
2023-04-26T10:01:44.975Z,636.00
2023-04-26T10:02:45.049Z,631.00
2023-04-26T10:03:44.048Z,628.00
2023-04-26T10:04:44.988Z,626.00
2023-04-26T10:05:43.991Z,603.00
2023-04-26T10:06:44.999Z,589.00
2023-04-26T10:07:44.961Z,626.00
2023-04-26T10:08:43.920Z,633.00
2023-04-26T10:09:44.904Z,626.00
2023-04-26T10:10:44.907Z,633.00
2023-04-26T10:11:44.907Z,630.00
2023-04-26T10:12:43.891Z,647.00
2023-04-26T10:13:44.905Z,658.00
2023-04-26T10:14:44.883Z,680.00
2023-04-26T10:15:44.874Z,666.00
2023-04-26T10:16:43.902Z,666.00
2023-04-26T10:17:44.927Z,684.00
2023-04-26T10:18:43.857Z,670.00
2023-04-26T10:19:43.857Z,723.00
2023-04-26T10:20:43.857Z,698.00
2023-04-26T10:21:44.832Z,731.00
2023-04-26T10:22:43.843Z,732.00
2023-04-26T10:23:44.812Z,683.00
2023-04-26T10:24:44.806Z,661.00
2023-04-26T10:25:43.803Z,698.00
2023-04-26T10:26:44.817Z,669.00
2023-04-26T10:27:44.796Z,657.00
2023-04-26T10:28:44.845Z,643.00
2023-04-26T10:29:44.774Z,675.00
2023-04-26T10:30:43.783Z,647.00
2023-04-26T10:31:44.788Z,634.00
2023-04-26T10:32:44.787Z,624.00
2023-04-26T10:33:44.767Z,609.00
2023-04-26T10:34:43.750Z,603.00
2023-04-26T10:35:44.740Z,592.00
2023-04-26T10:36:44.732Z,584.00
2023-04-26T10:37:44.726Z,595.00
2023-04-26T10:38:44.746Z,603.00
2023-04-26T10:39:44.711Z,593.00
2023-04-26T10:40:43.730Z,610.00
2023-04-26T10:41:44.743Z,575.00
2023-04-26T10:42:44.695Z,620.00
2023-04-26T10:43:43.724Z,610.00
2023-04-26T10:44:44.682Z,570.00
2023-04-26T10:45:43.744Z,576.00
2023-04-26T10:46:43.731Z,592.00
2023-04-26T10:47:43.761Z,632.00
2023-04-26T10:48:44.736Z,638.00
2023-04-26T10:49:43.743Z,637.00
2023-04-26T10:50:44.741Z,618.00
2023-04-26T10:51:43.761Z,620.00
2023-04-26T10:52:43.800Z,632.00
2023-04-26T10:53:44.783Z,649.00
2023-04-26T10:54:43.807Z,650.00
2023-04-26T10:55:44.806Z,614.00
2023-04-26T10:56:44.821Z,596.00
2023-04-26T10:57:44.825Z,625.00
2023-04-26T10:58:44.844Z,589.00
2023-04-26T10:59:54.215Z,593.00
2023-04-26T11:00:44.853Z,585.00
2023-04-26T11:01:44.874Z,572.00
2023-04-26T11:02:44.913Z,555.00
2023-04-26T11:03:45.064Z,547.00
2023-04-26T11:04:44.929Z,554.00
2023-04-26T11:05:44.837Z,575.00
2023-04-26T11:06:44.812Z,596.00
2023-04-26T11:07:43.864Z,579.00
2023-04-26T11:08:44.800Z,556.00
2023-04-26T11:09:43.822Z,570.00
2023-04-26T11:10:44.886Z,567.00
2023-04-26T11:11:44.786Z,556.00
2023-04-26T11:12:43.806Z,529.00
2023-04-26T11:13:43.776Z,519.00
2023-04-26T11:14:44.759Z,529.00
2023-04-26T11:15:43.802Z,555.00
2023-04-26T11:16:43.773Z,527.00
2023-04-26T11:17:44.792Z,523.00
2023-04-26T11:18:44.764Z,523.00
2023-04-26T11:19:43.739Z,554.00
2023-04-26T11:20:44.735Z,548.00
2023-04-26T11:21:43.730Z,557.00
2023-04-26T11:22:44.694Z,529.00
2023-04-26T11:23:44.705Z,546.00
2023-04-26T11:24:43.708Z,533.00
2023-04-26T11:25:44.707Z,561.00
2023-04-26T11:26:44.710Z,623.00
2023-04-26T11:27:44.658Z,606.00
2023-04-26T11:28:44.666Z,588.00
2023-04-26T11:29:44.649Z,643.00
2023-04-26T11:30:43.639Z,643.00
2023-04-26T11:31:44.775Z,613.00
2023-04-26T11:32:43.656Z,611.00
2023-04-26T11:33:43.623Z,628.00
2023-04-26T11:34:43.643Z,614.00
2023-04-26T11:35:44.604Z,606.00
2023-04-26T11:36:43.607Z,617.00
2023-04-26T11:37:43.598Z,652.00
2023-04-26T11:38:43.596Z,665.00
2023-04-26T11:39:43.576Z,698.00
2023-04-26T11:40:43.585Z,777.00
2023-04-26T11:41:44.582Z,773.00
2023-04-26T11:42:44.592Z,803.00
2023-04-26T11:43:44.682Z,870.00
2023-04-26T11:44:45.732Z,899.00
2023-04-26T11:45:44.547Z,933.00
2023-04-26T11:46:43.568Z,952.00
2023-04-26T11:47:43.582Z,970.00
2023-04-26T11:48:43.527Z,1044.00
2023-04-26T11:49:44.530Z,1109.00
2023-04-26T11:50:44.554Z,1158.00
2023-04-26T11:51:44.575Z,1210.00
2023-04-26T11:52:44.659Z,1186.00
2023-04-26T11:53:43.650Z,1226.00
2023-04-26T11:54:45.048Z,1189.00
2023-04-26T11:55:44.717Z,1163.00
2023-04-26T11:56:43.790Z,1164.00
2023-04-26T11:57:44.816Z,1221.00
2023-04-26T11:58:44.012Z,1248.00
2023-04-26T11:59:44.950Z,1270.00
2023-04-26T12:00:44.972Z,1272.00
2023-04-26T12:01:44.072Z,1236.00
2023-04-26T12:02:44.214Z,1220.00
2023-04-26T12:03:45.393Z,1231.00
2023-04-26T12:04:45.534Z,1252.00
2023-04-26T12:05:45.289Z,1247.00
2023-04-26T12:06:45.358Z,1256.00
2023-04-26T12:07:45.400Z,1250.00
2023-04-26T12:08:44.479Z,1260.00
2023-04-26T12:09:45.541Z,1246.00
2023-04-26T12:10:44.610Z,1234.00
2023-04-26T12:11:45.654Z,1248.00